Impacts TAF Board INFO
FOR SITUATIONAL AWARENESS. NOT TO BE USED FOR FLIGHT PLANNING PURPOSES.
IDs:

KDCA - Washington/National, VA, US

Issued at 2339 UTC 16 Aug 2018
Updated at 0524 UTC 17 Aug 2018
Potential Impact None Slight Moderate High
Time<<17/18Z 17/19Z 17/20Z 17/21Z 17/22Z 17/23Z 18/00Z 18/01Z 18/02Z 18/03Z 18/04Z 18/05Z 18/06Z>>
Type PRVL PRVL PRVL PRVL PRVL PRVL PRVL PRVL PRVL PRVL PRVL PRVL
VIS >6 >6 >6 >6 >6 >6 >6 >6 >6 >6 >6 >6
CIG 250 250 250 250 50 50 50 50 250 250 250 250
Cover BKN BKN BKN BKN OVC OVC OVC OVC BKN BKN BKN BKN
FltCat VFR VFR VFR VFR VFR VFR VFR VFR VFR VFR VFR VFR
WX -- -- -- -- VCTS VCTS VCTS VCTS -- -- -- --
WDir 180 180 180 180 200 200 200 200 240 240 240 240
WSpd 11 11 11 11 10 10 10 10 5 5 5 5
WGst 17 17 17 17 16 16 16 16 -- -- -- --

Raw TAF
KDCA 162339Z 1700/1806 19007KT P6SM FEW050 BKN250
  FM170200 VRB03KT P6SM SCT150 BKN250
  FM171300 18008KT P6SM SCT100 BKN250
  FM171800 18011G17KT P6SM SCT050 BKN250
  FM172200 20010G16KT P6SM VCTS BKN050CB OVC250
  FM180200 24005KT P6SM SCT050 BKN250


METAR Board
Radar Display
Forecast Discussion

FOR SITUATIONAL AWARENESS. NOT TO BE USED FOR FLIGHT PLANNING PURPOSES.